Time;durP1;ratioP1;P1;durP2;ratioP2;P2;SDS_P1;SDS_P2;PMS_P1;PMS_P2;Temp;Humidity;BMP_temperature;BMP_pressure;BME280_temperature;BME280_humidity;BME280_pressure;Samples;Min_cycle;Max_cycle;Signal;HPM_P1;HPM_P2
2023/04/25 00:00:25;;;;;;;9.05;3.70;;;;;;;9.25;74.50;99012.28;5002381;28;20152;-78
2023/04/25 00:02:52;;;;;;;6.57;3.70;;;;;;;9.28;74.52;99010.38;5003244;28;20046;-79
2023/04/25 00:05:19;;;;;;;6.38;3.78;;;;;;;9.29;74.66;99012.91;5011482;28;20066;-78
2023/04/25 00:07:46;;;;;;;13.15;4.30;;;;;;;9.29;74.63;99012.91;4989863;28;20050;-79
2023/04/25 00:10:12;;;;;;;8.18;3.65;;;;;;;9.31;74.60;99018.06;4985873;28;20058;-79
2023/04/25 00:12:40;;;;;;;9.15;3.88;;;;;;;9.32;74.97;99011.88;4994231;28;20057;-79
2023/04/25 00:15:07;;;;;;;7.60;3.42;;;;;;;9.35;75.21;99014.31;4993722;28;20467;-78
2023/04/25 00:17:34;;;;;;;7.05;3.58;;;;;;;9.37;75.03;99021.13;4992328;28;20105;-78
2023/04/25 00:20:04;;;;;;;7.60;3.67;;;;;;;9.39;75.25;99015.78;4993974;28;20586;-78
2023/04/25 00:22:31;;;;;;;6.65;3.65;;;;;;;9.42;75.10;99025.25;4994023;28;20105;-78
2023/04/25 00:24:59;;;;;;;10.80;4.05;;;;;;;9.45;74.93;99025.03;4993735;28;20061;-78
2023/04/25 00:27:26;;;;;;;10.13;3.80;;;;;;;9.46;75.01;99029.38;5011757;28;20414;-78
2023/04/25 00:29:53;;;;;;;8.50;3.22;;;;;;;9.48;74.91;99032.72;4993097;28;20517;-77
2023/04/25 00:32:19;;;;;;;9.57;3.70;;;;;;;9.49;75.17;99030.00;4993826;28;20054;-77
2023/04/25 00:34:46;;;;;;;13.77;3.83;;;;;;;9.51;75.10;99027.28;4992191;28;20134;-78
2023/04/25 00:37:12;;;;;;;14.95;4.20;;;;;;;9.54;75.20;99034.13;4993418;28;20053;-77
2023/04/25 00:39:39;;;;;;;16.58;3.75;;;;;;;9.55;74.92;99033.19;4993969;28;20061;-78
2023/04/25 00:42:07;;;;;;;15.27;4.68;;;;;;;9.55;74.91;99039.28;4993720;28;20051;-78
2023/04/25 00:44:35;;;;;;;12.30;3.90;;;;;;;9.57;74.81;99044.44;4993206;28;20068;-79
2023/04/25 00:47:02;;;;;;;13.05;3.75;;;;;;;9.57;74.97;99045.28;4992840;28;20507;-79
2023/04/25 00:49:29;;;;;;;15.88;4.50;;;;;;;9.58;75.04;99049.59;4993508;28;20513;-78
2023/04/25 00:51:56;;;;;;;13.02;4.20;;;;;;;9.60;74.88;99046.84;4992252;28;20487;-79
2023/04/25 00:54:22;;;;;;;13.30;4.60;;;;;;;9.61;74.87;99053.81;4993367;28;20062;-79
2023/04/25 00:56:49;;;;;;;14.57;4.03;;;;;;;9.62;74.97;99042.34;5000558;28;20057;-79
2023/04/25 00:59:17;;;;;;;11.82;3.85;;;;;;;9.64;74.71;99050.97;5007465;28;20065;-79
2023/04/25 01:01:44;;;;;;;20.10;4.45;;;;;;;9.65;74.77;99047.44;5011615;28;20054;-77
2023/04/25 01:04:12;;;;;;;19.40;4.78;;;;;;;9.65;74.68;99048.25;5012000;28;20057;-78
2023/04/25 01:06:40;;;;;;;12.13;3.85;;;;;;;9.67;74.76;99055.19;5012319;28;20050;-78
2023/04/25 01:09:07;;;;;;;14.43;4.30;;;;;;;9.67;74.56;99047.31;5012867;28;20065;-78
2023/04/25 01:11:34;;;;;;;11.85;3.78;;;;;;;9.68;73.98;99049.84;5012725;28;20056;-79
2023/04/25 01:14:01;;;;;;;19.92;4.55;;;;;;;9.68;74.50;99049.84;4995479;28;20054;-79
2023/04/25 01:16:28;;;;;;;20.17;4.40;;;;;;;9.68;74.24;99055.09;5006424;28;20042;-79
2023/04/25 01:18:55;;;;;;;20.70;4.60;;;;;;;9.68;74.41;99056.91;4995963;28;20078;-77
2023/04/25 01:21:22;;;;;;;13.30;3.65;;;;;;;9.67;74.45;99057.81;5000927;28;20112;-78
2023/04/25 01:23:49;;;;;;;15.52;4.18;;;;;;;9.67;74.76;99063.06;4988908;28;20046;-78
2023/04/25 01:26:17;;;;;;;12.68;4.25;;;;;;;9.67;74.56;99068.31;5011406;28;20061;-78
2023/04/25 01:28:45;;;;;;;19.55;4.55;;;;;;;9.67;74.25;99068.31;4998897;28;20069;-78
2023/04/25 01:31:12;;;;;;;24.25;4.63;;;;;;;9.65;73.61;99071.91;4986527;28;20064;-78
2023/04/25 01:33:39;;;;;;;17.58;3.90;;;;;;;9.62;74.07;99066.00;5000727;28;20065;-77
2023/04/25 01:36:06;;;;;;;19.90;4.40;;;;;;;9.60;74.09;99075.75;4988361;28;20046;-78
2023/04/25 01:38:33;;;;;;;18.17;3.88;;;;;;;9.58;73.93;99069.78;4995349;28;20065;-77
2023/04/25 01:40:59;;;;;;;10.40;3.75;;;;;;;9.56;73.92;99083.00;4992537;28;20061;-77
2023/04/25 01:43:26;;;;;;;25.17;4.50;;;;;;;9.55;73.82;99080.47;4992799;28;20051;-78
2023/04/25 01:45:53;;;;;;;19.02;4.10;;;;;;;9.54;74.00;99079.66;4991887;28;20491;-77
2023/04/25 01:48:19;;;;;;;23.52;4.18;;;;;;;9.53;73.89;99083.19;4997652;28;20081;-77
2023/04/25 01:50:46;;;;;;;13.25;4.45;;;;;;;9.52;73.67;99086.75;5003831;28;20046;-78
2023/04/25 01:53:14;;;;;;;13.73;3.25;;;;;;;9.51;73.79;99090.34;5012096;28;20054;-77
2023/04/25 01:55:41;;;;;;;16.58;4.03;;;;;;;9.51;73.67;99090.34;5008534;28;20062;-77
2023/04/25 01:58:09;;;;;;;14.45;4.03;;;;;;;9.51;73.64;99090.34;5002952;28;20717;-78
2023/04/25 02:00:38;;;;;;;12.43;3.50;;;;;;;9.52;73.48;99102.53;5003926;28;20454;-78
2023/04/25 02:03:05;;;;;;;14.38;4.35;;;;;;;9.49;73.58;99100.94;5012026;28;20084;-78
2023/04/25 02:05:39;;;;;;;12.00;3.72;;;;;;;9.46;72.12;99095.06;5011471;28;20093;-78
2023/04/25 02:08:07;;;;;;;12.30;3.55;;;;;;;9.47;72.97;99102.84;5011341;28;20054;-78
2023/04/25 02:10:34;;;;;;;19.08;4.35;;;;;;;9.45;73.27;99102.06;5011841;28;20108;-78
2023/04/25 02:13:01;;;;;;;13.43;3.53;;;;;;;9.43;72.94;99098.72;4994311;28;20104;-78
2023/04/25 02:15:27;;;;;;;15.40;3.30;;;;;;;9.39;73.13;99108.56;5011310;28;20458;-78
2023/04/25 02:17:54;;;;;;;16.80;4.13;;;;;;;9.37;73.06;99099.94;4993824;28;20065;-79
2023/04/25 02:20:23;;;;;;;14.88;4.00;;;;;;;9.34;72.99;99105.38;5011442;28;20137;-78
2023/04/25 02:22:49;;;;;;;13.52;3.50;;;;;;;9.33;73.21;99097.59;5010064;28;20498;-77
2023/04/25 02:25:17;;;;;;;11.90;3.20;;;;;;;9.30;73.14;99103.88;5011061;28;20062;-78
2023/04/25 02:27:43;;;;;;;13.32;3.50;;;;;;;9.29;73.56;99109.22;5011008;28;20597;-77
2023/04/25 02:30:11;;;;;;;15.57;3.83;;;;;;;9.28;73.23;99110.16;5011151;28;20050;-78
2023/04/25 02:32:38;;;;;;;16.23;4.30;;;;;;;9.24;73.14;99107.72;5011175;28;20494;-78
2023/04/25 02:35:06;;;;;;;18.83;3.88;;;;;;;9.22;73.23;99109.63;5009519;28;20100;-79
2023/04/25 02:37:34;;;;;;;21.10;4.72;;;;;;;9.20;73.48;99108.84;5011087;28;20068;-78
2023/04/25 02:40:02;;;;;;;13.82;4.13;;;;;;;9.19;73.69;99115.06;5011275;28;20065;-78
2023/04/25 02:42:30;;;;;;;16.85;4.05;;;;;;;9.17;73.93;99119.56;5011145;28;20053;-78
2023/04/25 02:44:56;;;;;;;13.05;3.80;;;;;;;9.16;73.79;99112.59;5010763;28;20054;-78
2023/04/25 02:47:23;;;;;;;18.13;3.53;;;;;;;9.16;73.71;99117.84;5010647;28;20054;-78
2023/04/25 02:49:50;;;;;;;14.13;3.95;;;;;;;9.15;73.91;99115.34;5010890;28;20104;-78
2023/04/25 02:52:16;;;;;;;17.42;4.35;;;;;;;9.14;73.91;99122.38;5011057;28;20050;-78
2023/04/25 02:54:43;;;;;;;15.95;3.90;;;;;;;9.13;73.63;99131.19;5010862;28;20053;-78
2023/04/25 02:57:10;;;;;;;13.32;4.00;;;;;;;9.12;73.93;99121.59;5010500;28;20054;-78
2023/04/25 02:59:36;;;;;;;17.98;3.95;;;;;;;9.10;73.94;99124.34;5011135;28;20054;-79
2023/04/25 03:02:03;;;;;;;15.20;4.57;;;;;;;9.09;74.01;99121.81;5010600;28;20441;-78
2023/04/25 03:04:29;;;;;;;16.90;4.18;;;;;;;9.09;74.00;99124.44;5010972;28;20053;-78
2023/04/25 03:06:56;;;;;;;12.90;4.22;;;;;;;9.08;73.81;99122.75;4992220;28;20152;-78
2023/04/25 03:09:22;;;;;;;17.13;4.45;;;;;;;9.08;73.92;99130.63;5010888;28;20057;-79
2023/04/25 03:11:49;;;;;;;17.95;4.85;;;;;;;9.08;73.96;99136.72;5009608;28;20061;-77
2023/04/25 03:14:16;;;;;;;13.52;4.00;;;;;;;9.07;73.80;99134.19;5009583;28;20077;-78
2023/04/25 03:16:42;;;;;;;17.23;4.47;;;;;;;9.05;73.83;99136.06;5009911;28;20084;-78
2023/04/25 03:19:09;;;;;;;18.10;4.72;;;;;;;9.04;73.72;99140.47;5010660;28;20054;-78
2023/04/25 03:21:36;;;;;;;17.30;5.03;;;;;;;9.02;73.56;99144.13;5009037;28;20574;-78
2023/04/25 03:24:04;;;;;;;20.05;4.30;;;;;;;9.01;73.66;99148.50;4989755;28;20051;-79
2023/04/25 03:26:30;;;;;;;22.30;4.60;;;;;;;8.99;73.90;99146.00;4990755;28;20069;-78
2023/04/25 03:28:57;;;;;;;14.48;4.03;;;;;;;8.97;73.73;99153.13;4991408;28;20526;-78
2023/04/25 03:31:25;;;;;;;17.75;4.65;;;;;;;8.94;73.62;99148.03;4991248;28;20094;-79
2023/04/25 03:33:51;;;;;;;14.57;4.43;;;;;;;8.94;73.51;99155.09;4991474;28;20062;-78
2023/04/25 13:26:36;;;;;;;6.40;1.92;;;;;;;17.52;59.49;99627.41;4983948;28;20046;-76
2023/04/25 13:29:03;;;;;;;4.65;1.35;;;;;;;18.06;58.92;99629.72;4989709;28;20047;-77
2023/04/25 13:31:31;;;;;;;5.82;1.33;;;;;;;18.66;57.88;99624.41;4975322;28;20092;-76
2023/04/25 13:33:57;;;;;;;7.93;1.48;;;;;;;19.29;56.75;99620.31;4993492;28;20054;-76
2023/04/25 13:39:16;;;;;;;5.40;1.30;;;;;;;20.53;54.86;99618.00;5021436;23;20105;-78
2023/04/25 13:41:42;;;;;;;3.53;1.15;;;;;;;21.03;53.46;99625.53;4973235;28;20053;-78
2023/04/25 13:44:10;;;;;;;3.40;1.20;;;;;;;21.54;53.22;99620.25;4973232;28;20058;-79
2023/04/25 13:46:37;;;;;;;4.00;1.42;;;;;;;21.96;50.73;99623.03;4972423;28;20053;-78
2023/04/25 13:49:13;;;;;;;3.20;1.20;;;;;;;22.14;47.49;99625.56;4971859;28;20403;-79
2023/04/25 13:51:40;;;;;;;3.53;1.00;;;;;;;21.98;44.89;99656.69;4968044;28;20066;-78
2023/04/25 13:54:07;;;;;;;4.10;1.40;;;;;;;21.57;44.07;99649.34;4972865;28;20055;-78
2023/04/25 13:56:34;;;;;;;3.72;1.10;;;;;;;21.01;43.92;99646.25;4972210;28;20047;-78
2023/04/25 13:59:00;;;;;;;6.88;1.20;;;;;;;20.38;44.22;99655.16;4972921;28;20077;-77
2023/04/25 14:01:28;;;;;;;2.53;1.13;;;;;;;19.76;44.77;99659.38;4969050;28;20526;-77
2023/04/25 14:03:54;;;;;;;4.40;1.10;;;;;;;19.17;45.41;99661.50;4966668;28;20492;-78
2023/04/25 14:06:23;;;;;;;2.63;1.20;;;;;;;18.60;45.96;99663.97;4971550;28;20058;-77
2023/04/25 14:08:51;;;;;;;2.72;1.02;;;;;;;18.11;46.35;99661.31;4969105;28;20059;-79
2023/04/25 14:11:18;;;;;;;1.48;0.70;;;;;;;17.65;46.51;99661.75;4979164;28;20129;-78
2023/04/25 14:13:55;;;;;;;3.10;0.93;;;;;;;17.24;47.47;99652.94;5066807;28;20127;-78
2023/04/25 14:16:22;;;;;;;2.20;0.95;;;;;;;16.94;48.42;99658.09;5061868;28;20131;-77
2023/04/25 14:18:49;;;;;;;3.30;1.05;;;;;;;16.77;50.09;99659.53;5048031;28;20099;-78
2023/04/25 14:21:16;;;;;;;2.97;1.20;;;;;;;16.80;51.63;99644.19;5047841;28;20049;-76
2023/04/25 14:23:42;;;;;;;5.45;1.50;;;;;;;17.09;54.54;99649.78;5047901;28;20065;-77
2023/04/25 14:26:12;;;;;;;4.53;1.45;;;;;;;17.52;54.49;99630.06;5047533;28;20053;-77
2023/04/25 14:28:39;;;;;;;5.03;1.33;;;;;;;18.06;54.59;99631.56;5047235;28;20049;-78
2023/04/25 14:31:05;;;;;;;3.78;1.23;;;;;;;18.61;53.03;99635.47;5047911;28;20056;-80
2023/04/25 14:33:32;;;;;;;4.85;1.50;;;;;;;19.07;51.75;99630.38;5047506;28;20053;-78
2023/04/25 14:35:58;;;;;;;4.32;1.38;;;;;;;19.47;50.42;99630.19;5047165;28;20520;-77
2023/04/25 14:38:26;;;;;;;3.60;0.90;;;;;;;19.79;49.48;99623.50;5047040;28;20075;-78
2023/04/25 14:40:53;;;;;;;4.25;1.50;;;;;;;20.09;48.81;99631.34;5047607;28;20056;-77
2023/04/25 14:43:20;;;;;;;5.57;1.65;;;;;;;20.41;48.91;99629.97;5047371;28;20136;-78
2023/04/25 14:45:46;;;;;;;3.45;1.30;;;;;;;20.67;47.10;99639.84;5047013;28;20041;-78
2023/04/25 14:48:13;;;;;;;4.55;1.50;;;;;;;20.79;45.76;99640.41;5047122;28;20049;-77
2023/04/25 14:50:40;;;;;;;4.25;1.35;;;;;;;20.74;44.83;99640.06;5046035;28;20054;-77
2023/04/25 14:53:06;;;;;;;4.72;1.33;;;;;;;20.59;43.94;99651.31;5047116;28;20072;-79
2023/04/25 14:55:33;;;;;;;4.35;1.23;;;;;;;20.37;44.13;99639.28;5046709;28;20060;-79
2023/04/25 14:58:00;;;;;;;4.88;1.30;;;;;;;20.16;44.52;99648.44;5046569;28;20042;-77
2023/04/25 15:00:27;;;;;;;3.97;1.60;;;;;;;20.04;45.55;99634.47;5047250;28;20417;-79
2023/04/25 15:02:54;;;;;;;4.10;1.40;;;;;;;20.11;46.24;99637.38;5047052;28;20161;-77
2023/04/25 15:05:20;;;;;;;4.20;1.35;;;;;;;20.31;46.03;99632.72;5046595;28;20565;-77
2023/04/25 15:07:47;;;;;;;3.95;1.40;;;;;;;20.57;46.67;99646.09;5046628;28;20080;-78
2023/04/25 15:10:15;;;;;;;3.33;1.30;;;;;;;20.87;46.93;99643.19;5046842;28;20383;-78
2023/04/25 15:12:42;;;;;;;4.95;1.50;;;;;;;21.20;46.43;99653.22;5047012;28;20474;-79
2023/04/25 15:15:12;;;;;;;2.38;1.17;;;;;;;21.57;46.12;99645.84;5046427;28;20044;-78
2023/04/25 15:17:50;;;;;;;2.47;0.95;;;;;;;21.98;45.34;99650.50;5045266;28;20498;-78
2023/04/25 15:20:17;;;;;;;3.85;1.40;;;;;;;22.22;43.46;99655.06;5046687;28;20056;-78
2023/04/25 15:22:48;;;;;;;6.22;1.55;;;;;;;22.21;41.64;99660.59;5045466;28;20056;-79
2023/04/25 15:25:19;;;;;;;2.92;1.20;;;;;;;21.86;39.61;99656.16;5033453;28;20061;-78
2023/04/25 15:27:48;;;;;;;4.93;1.35;;;;;;;21.28;38.76;99660.44;5033046;28;20564;-77
2023/04/25 15:30:16;;;;;;;5.22;1.27;;;;;;;20.60;39.08;99682.41;5033449;28;20060;-77
2023/04/25 15:32:43;;;;;;;3.60;1.20;;;;;;;19.88;39.54;99668.00;5033391;28;20042;-79
2023/04/25 15:35:10;;;;;;;4.65;1.00;;;;;;;19.23;40.62;99676.91;5032936;28;20060;-79
2023/04/25 15:37:37;;;;;;;4.03;1.20;;;;;;;18.66;41.28;99677.72;5032851;28;20049;-77
2023/04/25 15:40:10;;;;;;;4.35;1.20;;;;;;;18.16;42.00;99684.91;5033462;28;20053;-79
2023/04/25 15:43:03;;;;;;;;;;;;;;;17.77;43.05;99686.47;5033898;28;20072;-82
2023/04/25 15:45:31;;;;;;;5.50;1.50;;;;;;;17.43;43.78;99681.44;5031355;28;19932;-78
2023/04/25 15:47:57;;;;;;;3.88;1.23;;;;;;;17.08;43.72;99685.34;5032514;28;20437;-80
2023/04/25 15:50:24;;;;;;;4.93;1.55;;;;;;;16.72;43.43;99686.50;5032082;28;20084;-80
2023/04/25 15:52:51;;;;;;;5.13;1.20;;;;;;;16.46;44.64;99689.53;5033090;28;20053;-79
2023/04/25 15:55:20;;;;;;;6.78;1.33;;;;;;;16.34;46.04;99682.56;5032970;28;20050;-81
2023/04/25 15:57:48;;;;;;;5.68;1.40;;;;;;;16.45;47.18;99687.81;5031497;28;20103;-78
2023/04/25 16:00:16;;;;;;;3.17;1.02;;;;;;;16.67;48.27;99688.69;5033486;28;20441;-78
2023/04/25 16:02:44;;;;;;;2.85;1.10;;;;;;;16.94;47.40;99690.81;5032919;28;20060;-78
2023/04/25 16:05:13;;;;;;;5.40;1.10;;;;;;;17.16;46.70;99694.34;5031338;28;20046;-80
2023/04/25 16:07:41;;;;;;;4.57;1.55;;;;;;;17.33;45.69;99686.72;5032367;28;20482;-82
2023/04/25 16:10:10;;;;;;;6.95;1.45;;;;;;;17.38;45.11;99695.13;5032647;28;20514;-78
2023/04/25 16:12:39;;;;;;;8.02;1.30;;;;;;;17.30;44.36;99695.81;5032740;28;20603;-79
2023/04/25 16:15:06;;;;;;;3.38;1.25;;;;;;;17.16;44.17;99704.97;5031105;28;20045;-79
2023/04/25 16:17:33;;;;;;;3.00;1.30;;;;;;;16.98;44.76;99698.56;5032040;28;20171;-78
2023/04/25 16:20:03;;;;;;;3.10;1.00;;;;;;;16.85;45.61;99706.75;5032362;28;20045;-80
2023/04/25 16:22:30;;;;;;;5.05;0.90;;;;;;;16.82;45.97;99709.66;5032602;28;20049;-78
2023/04/25 16:24:57;;;;;;;3.17;1.13;;;;;;;16.89;46.12;99711.66;5030951;28;20049;-78
2023/04/25 16:27:23;;;;;;;3.25;1.20;;;;;;;17.01;46.03;99706.28;5030210;28;20518;-80
2023/04/25 16:29:50;;;;;;;3.47;1.02;;;;;;;17.11;45.99;99717.84;5032217;28;20053;-78
2023/04/25 16:32:22;;;;;;;3.92;1.13;;;;;;;17.13;45.28;99720.38;5031911;28;20045;-78
2023/04/25 16:34:49;;;;;;;3.65;1.20;;;;;;;17.02;44.13;99722.09;5030329;28;20050;-78
2023/04/25 16:37:15;;;;;;;4.03;1.40;;;;;;;16.78;43.85;99720.53;5030880;28;20132;-78
2023/04/25 16:39:42;;;;;;;5.68;1.30;;;;;;;16.47;43.16;99730.19;5031932;28;20426;-80
2023/04/25 16:42:09;;;;;;;6.53;1.25;;;;;;;16.08;43.21;99736.84;5032096;28;20144;-79
2023/04/25 16:44:35;;;;;;;6.82;1.33;;;;;;;15.72;43.76;99731.69;5032251;28;20053;-77
2023/04/25 16:47:03;;;;;;;7.07;1.45;;;;;;;15.35;44.75;99732.75;5030812;28;20426;-79
2023/04/25 16:49:31;;;;;;;4.13;1.15;;;;;;;15.01;44.80;99739.78;5031719;28;20058;-79
2023/04/25 16:51:57;;;;;;;7.32;1.30;;;;;;;14.68;45.41;99750.13;5030675;28;20053;-79
2023/04/25 16:54:24;;;;;;;4.93;1.38;;;;;;;14.39;45.77;99758.44;5030695;28;20134;-78
2023/04/25 16:56:51;;;;;;;7.78;1.70;;;;;;;14.05;45.78;99748.47;5028941;28;20053;-79
2023/04/25 16:59:18;;;;;;;4.82;1.40;;;;;;;13.71;45.88;99746.44;5030570;28;20042;-79
2023/04/25 17:01:45;;;;;;;3.70;1.23;;;;;;;13.37;46.62;99748.75;5029525;28;20455;-79
2023/04/25 17:04:11;;;;;;;4.20;1.30;;;;;;;13.06;47.02;99735.88;5030699;28;20053;-77
2023/04/25 17:06:38;;;;;;;3.03;1.10;;;;;;;12.80;47.62;99743.75;5030801;28;20049;-78
2023/04/25 17:09:05;;;;;;;2.30;1.02;;;;;;;12.57;47.94;99735.56;5030315;28;20071;-76
2023/04/25 17:11:32;;;;;;;2.78;0.93;;;;;;;12.38;48.87;99736.75;5030372;28;20068;-78
2023/04/25 17:13:58;;;;;;;1.42;0.73;;;;;;;12.27;49.26;99743.66;5031579;28;20042;-77
2023/04/25 17:16:36;;;;;;;3.40;1.20;;;;;;;12.14;48.75;99741.00;5030996;28;20465;-76
2023/04/25 17:19:06;;;;;;;7.25;1.30;;;;;;;12.11;49.40;99745.50;5031539;28;20095;-78
2023/04/25 17:21:33;;;;;;;3.25;0.90;;;;;;;12.13;50.72;99742.78;5030123;28;20049;-79
2023/04/25 17:23:59;;;;;;;3.13;1.40;;;;;;;12.18;51.00;99751.22;5029977;28;20520;-80
2023/04/25 17:26:26;;;;;;;2.45;0.80;;;;;;;12.24;51.35;99752.63;5030797;28;20490;-80
2023/04/25 17:28:53;;;;;;;4.30;1.38;;;;;;;12.32;51.23;99755.63;5029709;28;20085;-79
2023/04/25 17:31:22;;;;;;;7.97;1.70;;;;;;;12.40;51.50;99755.13;5031007;28;20170;-79
2023/04/25 17:33:49;;;;;;;4.28;1.38;;;;;;;12.47;51.28;99753.78;5029814;28;20053;-80
2023/04/25 17:36:16;;;;;;;5.18;1.35;;;;;;;12.51;51.39;99755.28;5030574;28;20412;-79
2023/04/25 17:38:42;;;;;;;3.05;1.20;;;;;;;12.54;51.26;99758.66;5030697;28;20045;-78
2023/04/25 17:41:09;;;;;;;4.18;1.48;;;;;;;12.50;50.90;99753.59;5030871;28;20144;-78
2023/04/25 17:43:36;;;;;;;4.68;1.45;;;;;;;12.46;50.81;99767.09;5030954;28;20565;-80
2023/04/25 17:46:02;;;;;;;8.45;1.60;;;;;;;12.36;50.70;99767.69;5030547;28;20046;-78
2023/04/25 17:48:30;;;;;;;5.82;1.42;;;;;;;12.28;50.87;99769.13;5030163;28;20053;-78
2023/04/25 17:50:57;;;;;;;5.20;1.20;;;;;;;12.17;50.95;99767.16;5029475;28;20088;-79
2023/04/25 17:53:24;;;;;;;3.58;1.50;;;;;;;12.07;50.91;99772.19;5030770;28;20092;-79
2023/04/25 17:55:50;;;;;;;3.72;1.30;;;;;;;11.98;51.42;99770.94;5030485;28;20049;-79
2023/04/25 17:58:17;;;;;;;5.55;1.45;;;;;;;11.90;51.52;99774.06;5030381;28;20087;-80
2023/04/25 18:00:44;;;;;;;6.07;1.63;;;;;;;11.83;51.76;99772.75;5030723;28;20053;-78
2023/04/25 18:03:10;;;;;;;5.82;1.85;;;;;;;11.75;52.19;99780.28;5030708;28;20144;-79
2023/04/25 18:05:37;;;;;;;8.30;1.42;;;;;;;11.66;52.29;99789.63;5029946;28;20060;-79
2023/04/25 18:08:05;;;;;;;5.97;1.60;;;;;;;11.55;52.48;99787.63;5028621;28;20045;-78
2023/04/25 18:10:33;;;;;;;4.35;1.33;;;;;;;11.42;52.67;99787.50;5030633;28;20057;-80
2023/04/25 18:13:00;;;;;;;5.78;1.50;;;;;;;11.30;52.75;99791.75;5028931;28;20557;-79
2023/04/25 18:15:27;;;;;;;4.68;1.30;;;;;;;11.18;53.18;99801.22;5028860;28;20064;-77
2023/04/25 18:17:55;;;;;;;4.47;1.33;;;;;;;11.05;53.28;99804.56;5029843;28;20057;-79
2023/04/25 18:20:22;;;;;;;6.47;1.50;;;;;;;10.95;53.29;99801.63;5030619;28;20084;-79
2023/04/25 18:22:49;;;;;;;4.57;1.25;;;;;;;10.85;53.60;99807.50;5030172;28;20088;-78
2023/04/25 18:25:17;;;;;;;6.03;1.70;;;;;;;10.75;53.65;99801.91;5028844;28;20056;-77
2023/04/25 18:27:44;;;;;;;7.70;1.80;;;;;;;10.67;54.08;99807.63;5028743;28;20425;-80
2023/04/25 18:30:12;;;;;;;6.70;1.77;;;;;;;10.61;54.42;99810.63;5030299;28;20081;-79
2023/04/25 18:32:39;;;;;;;5.90;1.55;;;;;;;10.57;54.43;99817.81;5028899;28;20505;-79
2023/04/25 18:35:06;;;;;;;4.82;1.33;;;;;;;10.53;54.57;99827.69;5030046;28;20049;-79
2023/04/25 18:37:32;;;;;;;4.03;1.45;;;;;;;10.50;54.54;99827.00;5029978;28;20053;-78
2023/04/25 18:40:04;;;;;;;7.47;1.40;;;;;;;10.47;54.53;99835.06;5029115;28;20461;-78
2023/04/25 18:42:32;;;;;;;4.82;1.38;;;;;;;10.43;54.95;99829.06;5028998;28;20060;-79
2023/04/25 18:44:58;;;;;;;6.03;1.60;;;;;;;10.40;55.03;99830.09;5028560;28;20045;-79
2023/04/25 18:47:25;;;;;;;7.90;1.80;;;;;;;10.37;54.83;99832.91;5029983;28;20575;-78
2023/04/25 18:49:52;;;;;;;4.85;1.80;;;;;;;10.34;55.09;99840.09;5030395;28;20136;-79
2023/04/25 18:52:18;;;;;;;5.78;1.40;;;;;;;10.29;55.04;99841.19;5030300;28;20744;-78
2023/04/25 18:54:45;;;;;;;6.38;2.20;;;;;;;10.26;55.09;99844.03;5029806;28;20413;-80
2023/04/25 18:57:13;;;;;;;5.03;1.60;;;;;;;10.23;55.28;99846.81;5029482;28;20417;-78
2023/04/25 18:59:43;;;;;;;4.10;1.30;;;;;;;10.19;55.03;99847.91;5032134;28;20053;-78
2023/04/25 19:02:10;;;;;;;5.20;1.58;;;;;;;10.14;55.11;99845.50;5034020;28;20091;-78
2023/04/25 19:04:37;;;;;;;4.28;1.70;;;;;;;10.10;55.49;99851.03;5032711;28;20057;-78
2023/04/25 19:07:04;;;;;;;4.22;1.42;;;;;;;10.04;55.18;99854.84;5033070;28;20448;-78
2023/04/25 19:09:30;;;;;;;5.65;1.30;;;;;;;10.00;55.58;99861.19;5033838;28;20071;-79
2023/04/25 19:11:57;;;;;;;3.30;1.42;;;;;;;9.96;55.33;99867.53;5033724;28;20060;-79
2023/04/25 19:14:24;;;;;;;5.50;1.67;;;;;;;9.94;55.48;99866.78;5033618;28;20652;-79
2023/04/25 19:16:51;;;;;;;7.10;1.75;;;;;;;9.91;55.40;99873.06;5032937;28;20460;-78
2023/04/25 19:19:18;;;;;;;6.75;1.60;;;;;;;9.85;55.71;99874.22;5033718;28;20088;-79
2023/04/25 19:21:44;;;;;;;7.30;1.63;;;;;;;9.81;55.67;99870.06;5033533;28;20541;-79
2023/04/25 19:24:11;;;;;;;3.97;1.40;;;;;;;9.77;55.82;99874.59;5033516;28;20045;-78
2023/04/25 19:26:38;;;;;;;3.90;1.70;;;;;;;9.71;55.67;99872.31;5032817;28;20057;-78
2023/04/25 19:29:11;;;;;;;4.55;1.60;;;;;;;9.63;55.55;99877.97;5033534;28;20065;-78
2023/04/25 19:31:39;;;;;;;5.85;1.67;;;;;;;9.60;56.03;99870.22;5033611;28;20103;-79
2023/04/25 19:34:06;;;;;;;7.32;1.65;;;;;;;9.56;56.04;99875.72;5032151;28;20133;-77
2023/04/25 19:36:33;;;;;;;7.03;1.90;;;;;;;9.48;56.08;99882.22;5032583;28;20140;-82
2023/04/25 19:41:30;;;;;;;5.90;1.33;;;;;;;9.37;56.28;99877.50;5031664;28;20056;-80
2023/04/25 19:44:01;;;;;;;6.78;1.60;;;;;;;9.33;56.46;99881.22;5023130;28;20054;-79
2023/04/25 19:46:27;;;;;;;5.15;1.80;;;;;;;9.31;56.44;99882.22;5022821;28;20058;-80
2023/04/25 19:48:54;;;;;;;6.75;1.35;;;;;;;9.29;56.74;99884.06;5022428;28;20050;-80
2023/04/25 19:51:20;;;;;;;5.78;2.08;;;;;;;9.25;56.76;99878.97;5015854;28;20045;-80
2023/04/25 19:53:47;;;;;;;11.15;2.13;;;;;;;9.24;56.64;99877.25;5013328;28;20056;-80
2023/04/25 19:56:14;;;;;;;5.22;1.35;;;;;;;9.21;56.86;99880.06;5011501;28;20545;-80
2023/04/25 19:58:41;;;;;;;6.55;1.50;;;;;;;9.19;57.04;99883.69;5012755;28;20045;-80
2023/04/25 20:01:08;;;;;;;5.32;1.50;;;;;;;9.18;57.01;99881.97;5012927;28;20506;-80
2023/04/25 20:03:35;;;;;;;4.43;1.55;;;;;;;9.16;56.79;99884.66;5013250;28;20046;-80
2023/04/25 20:06:02;;;;;;;8.65;1.73;;;;;;;9.15;56.90;99895.25;5012660;28;20052;-80
2023/04/25 20:08:29;;;;;;;4.10;1.60;;;;;;;9.12;57.11;99886.59;5012758;28;20125;-80
2023/04/25 20:10:56;;;;;;;5.80;1.50;;;;;;;9.11;56.79;99890.16;5012623;28;20557;-79
2023/04/25 20:13:22;;;;;;;10.68;1.80;;;;;;;9.09;57.15;99891.16;5012603;28;20060;-80
2023/04/25 20:15:49;;;;;;;7.03;1.38;;;;;;;9.08;57.07;99895.53;5012271;28;20057;-80
2023/04/25 20:18:15;;;;;;;7.28;2.30;;;;;;;9.06;57.26;99900.03;5012530;28;20096;-80
2023/04/25 20:20:42;;;;;;;5.15;1.35;;;;;;;9.05;57.33;99893.06;5012656;28;20057;-80
2023/04/25 20:23:08;;;;;;;6.75;2.05;;;;;;;9.05;57.30;99902.72;5012627;28;20501;-80
2023/04/25 20:25:35;;;;;;;5.55;1.38;;;;;;;9.04;56.98;99904.50;5012198;28;20062;-80
2023/04/25 20:28:02;;;;;;;6.70;1.70;;;;;;;9.03;57.01;99902.78;5012138;28;20045;-80
2023/04/25 20:30:28;;;;;;;7.07;1.60;;;;;;;9.01;56.92;99909.06;5012624;28;20058;-80
2023/04/25 20:32:55;;;;;;;6.38;1.50;;;;;;;8.98;57.09;99908.25;5012614;28;20053;-80
2023/04/25 20:35:22;;;;;;;6.03;1.80;;;;;;;8.96;57.07;99910.13;5012278;28;20073;-79
2023/04/25 20:37:49;;;;;;;5.80;1.48;;;;;;;8.92;57.09;99907.69;5011997;28;20046;-79
2023/04/25 20:40:16;;;;;;;6.28;1.63;;;;;;;8.89;57.32;99913.94;5012052;28;20062;-80
2023/04/25 20:42:42;;;;;;;7.78;1.63;;;;;;;8.85;57.17;99915.88;5012225;28;20050;-79
2023/04/25 20:45:12;;;;;;;6.13;1.40;;;;;;;8.83;57.52;99914.25;5012125;28;20133;-80
2023/04/25 20:47:39;;;;;;;3.72;1.88;;;;;;;8.80;57.57;99919.63;5011727;28;20096;-80
2023/04/25 20:50:07;;;;;;;2.88;1.52;;;;;;;8.77;57.30;99910.13;5012258;28;20141;-80
2023/04/25 20:52:36;;;;;;;7.50;2.03;;;;;;;8.72;57.22;99906.88;5012113;28;20092;-79
2023/04/25 20:55:04;;;;;;;5.75;1.88;;;;;;;8.69;57.44;99914.91;5011727;28;20053;-80
2023/04/25 20:57:30;;;;;;;6.93;1.60;;;;;;;8.66;57.31;99915.03;5011913;28;20159;-80
2023/04/25 20:59:57;;;;;;;5.55;1.50;;;;;;;8.64;57.65;99911.63;5012090;28;20049;-80
2023/04/25 21:02:24;;;;;;;6.40;1.83;;;;;;;8.59;57.40;99915.31;5012158;28;20073;-80
2023/04/25 21:04:51;;;;;;;6.03;1.40;;;;;;;8.56;57.43;99915.47;5010621;28;20057;-80
2023/04/25 21:07:18;;;;;;;6.10;1.55;;;;;;;8.54;57.65;99919.06;5011607;28;20108;-79
2023/04/25 21:09:44;;;;;;;5.95;1.50;;;;;;;8.51;57.47;99922.66;5011992;28;20068;-79
2023/04/25 21:12:11;;;;;;;6.38;1.90;;;;;;;8.48;57.57;99917.56;5010867;28;20080;-79
2023/04/25 21:14:37;;;;;;;4.78;1.88;;;;;;;8.45;57.44;99915.91;5011939;28;20487;-80
2023/04/25 21:17:04;;;;;;;7.35;1.73;;;;;;;8.43;57.54;99919.53;5011566;28;20080;-79
2023/04/25 21:19:31;;;;;;;4.18;1.20;;;;;;;8.38;57.68;99917.16;5010811;28;20073;-80
2023/04/25 21:21:58;;;;;;;10.73;1.48;;;;;;;8.35;57.93;99917.28;5011701;28;20074;-79
2023/04/25 21:24:26;;;;;;;5.30;1.90;;;;;;;8.33;57.75;99919.09;5011810;28;20050;-80
2023/04/25 21:26:52;;;;;;;5.07;1.63;;;;;;;8.32;57.95;99920.03;5011399;28;20352;-79
2023/04/25 21:29:19;;;;;;;6.25;1.65;;;;;;;8.28;57.63;99929.81;5011799;28;20045;-79
2023/04/25 21:31:45;;;;;;;7.85;2.20;;;;;;;8.26;57.81;99925.56;5011409;28;20490;-79